sensor_id;sensor_type;location;lat;lon;timestamp;temperature;humidity
15543;DHT22;7873;52.230;12.856;2024-03-23T00:55:31;24.80;39.50
15543;DHT22;7873;52.230;12.856;2024-03-23T00:57:58;24.80;39.50
15543;DHT22;7873;52.230;12.856;2024-03-23T01:00:23;24.80;39.50
15543;DHT22;7873;52.230;12.856;2024-03-23T01:02:50;24.80;39.60
15543;DHT22;7873;52.230;12.856;2024-03-23T01:05:15;24.80;39.50
15543;DHT22;7873;52.230;12.856;2024-03-23T01:07:42;24.80;39.50
15543;DHT22;7873;52.230;12.856;2024-03-23T01:10:09;24.80;39.50
15543;DHT22;7873;52.230;12.856;2024-03-23T01:12:36;24.80;39.60
15543;DHT22;7873;52.230;12.856;2024-03-23T01:15:02;24.80;39.50
15543;DHT22;7873;52.230;12.856;2024-03-23T01:17:28;24.80;39.60
15543;DHT22;7873;52.230;12.856;2024-03-23T01:19:55;24.80;39.60
15543;DHT22;7873;52.230;12.856;2024-03-23T01:22:20;24.70;39.60
15543;DHT22;7873;52.230;12.856;2024-03-23T01:24:47;24.70;39.50
15543;DHT22;7873;52.230;12.856;2024-03-23T01:27:13;24.70;39.60
15543;DHT22;7873;52.230;12.856;2024-03-23T01:29:40;24.70;39.50
15543;DHT22;7873;52.230;12.856;2024-03-23T01:32:06;24.70;39.60
15543;DHT22;7873;52.230;12.856;2024-03-23T01:34:33;24.70;39.60
15543;DHT22;7873;52.230;12.856;2024-03-23T01:36:58;24.70;39.50
15543;DHT22;7873;52.230;12.856;2024-03-23T01:39:25;24.70;39.50
15543;DHT22;7873;52.230;12.856;2024-03-23T01:41:50;24.70;39.50
15543;DHT22;7873;52.230;12.856;2024-03-23T01:44:18;24.70;39.60
15543;DHT22;7873;52.230;12.856;2024-03-23T01:46:44;24.70;39.50
15543;DHT22;7873;52.230;12.856;2024-03-23T01:49:10;24.70;39.50
15543;DHT22;7873;52.230;12.856;2024-03-23T01:51:37;24.70;39.50
15543;DHT22;7873;52.230;12.856;2024-03-23T01:54:04;24.70;39.50
15543;DHT22;7873;52.230;12.856;2024-03-23T01:56:32;24.70;39.50
15543;DHT22;7873;52.230;12.856;2024-03-23T01:59:00;24.60;39.50
15543;DHT22;7873;52.230;12.856;2024-03-23T02:01:27;24.60;39.60
15543;DHT22;7873;52.230;12.856;2024-03-23T02:03:53;24.60;39.60
15543;DHT22;7873;52.230;12.856;2024-03-23T02:06:19;24.60;39.70
15543;DHT22;7873;52.230;12.856;2024-03-23T02:08:45;24.60;39.70
15543;DHT22;7873;52.230;12.856;2024-03-23T02:11:11;24.60;39.70
15543;DHT22;7873;52.230;12.856;2024-03-23T02:13:37;24.60;39.70
15543;DHT22;7873;52.230;12.856;2024-03-23T02:16:04;24.60;39.80
15543;DHT22;7873;52.230;12.856;2024-03-23T02:18:32;24.50;39.70
15543;DHT22;7873;52.230;12.856;2024-03-23T02:20:58;24.50;39.80
15543;DHT22;7873;52.230;12.856;2024-03-23T02:23:26;24.50;39.80
15543;DHT22;7873;52.230;12.856;2024-03-23T02:25:51;24.50;39.80
15543;DHT22;7873;52.230;12.856;2024-03-23T02:28:18;24.50;39.80
15543;DHT22;7873;52.230;12.856;2024-03-23T02:30:44;24.50;39.90
15543;DHT22;7873;52.230;12.856;2024-03-23T02:33:10;24.40;39.90
15543;DHT22;7873;52.230;12.856;2024-03-23T02:35:36;24.40;39.90
15543;DHT22;7873;52.230;12.856;2024-03-23T02:38:02;24.40;39.90
15543;DHT22;7873;52.230;12.856;2024-03-23T02:40:29;24.40;39.90
15543;DHT22;7873;52.230;12.856;2024-03-23T02:42:56;24.40;40.00
15543;DHT22;7873;52.230;12.856;2024-03-23T02:45:21;24.40;40.00
15543;DHT22;7873;52.230;12.856;2024-03-23T02:47:48;24.40;40.00
15543;DHT22;7873;52.230;12.856;2024-03-23T02:50:17;24.40;40.00
15543;DHT22;7873;52.230;12.856;2024-03-23T02:52:44;24.30;40.00
15543;DHT22;7873;52.230;12.856;2024-03-23T02:55:09;24.30;40.00
15543;DHT22;7873;52.230;12.856;2024-03-23T02:57:37;24.30;40.00
15543;DHT22;7873;52.230;12.856;2024-03-23T03:00:03;24.30;40.00
15543;DHT22;7873;52.230;12.856;2024-03-23T03:02:32;24.30;40.00
15543;DHT22;7873;52.230;12.856;2024-03-23T03:04:58;24.30;40.00
15543;DHT22;7873;52.230;12.856;2024-03-23T03:07:24;24.30;40.00
15543;DHT22;7873;52.230;12.856;2024-03-23T03:09:50;24.30;40.00
15543;DHT22;7873;52.230;12.856;2024-03-23T03:12:17;24.30;40.00
15543;DHT22;7873;52.230;12.856;2024-03-23T03:14:43;24.30;40.00
15543;DHT22;7873;52.230;12.856;2024-03-23T03:17:10;24.30;40.00
15543;DHT22;7873;52.230;12.856;2024-03-23T03:19:35;24.30;40.10
15543;DHT22;7873;52.230;12.856;2024-03-23T03:22:02;24.30;40.10
15543;DHT22;7873;52.230;12.856;2024-03-23T03:24:29;24.30;40.10
15543;DHT22;7873;52.230;12.856;2024-03-23T03:26:56;24.20;40.00
15543;DHT22;7873;52.230;12.856;2024-03-23T03:29:21;24.20;40.00
15543;DHT22;7873;52.230;12.856;2024-03-23T03:31:49;24.20;40.00
15543;DHT22;7873;52.230;12.856;2024-03-23T03:34:15;24.20;40.10
15543;DHT22;7873;52.230;12.856;2024-03-23T03:36:42;24.20;40.10
15543;DHT22;7873;52.230;12.856;2024-03-23T03:39:07;24.20;40.00
15543;DHT22;7873;52.230;12.856;2024-03-23T03:41:34;24.20;40.00
15543;DHT22;7873;52.230;12.856;2024-03-23T03:43:59;24.10;40.10
15543;DHT22;7873;52.230;12.856;2024-03-23T03:46:27;24.10;40.10
15543;DHT22;7873;52.230;12.856;2024-03-23T03:48:55;24.10;40.00
15543;DHT22;7873;52.230;12.856;2024-03-23T03:51:21;24.10;39.90
15543;DHT22;7873;52.230;12.856;2024-03-23T03:53:47;24.10;39.90
15543;DHT22;7873;52.230;12.856;2024-03-23T03:56:13;24.10;39.80
15543;DHT22;7873;52.230;12.856;2024-03-23T03:58:39;24.10;39.80
15543;DHT22;7873;52.230;12.856;2024-03-23T04:01:05;24.10;39.70
15543;DHT22;7873;52.230;12.856;2024-03-23T04:03:31;24.10;39.60
15543;DHT22;7873;52.230;12.856;2024-03-23T04:05:59;24.10;39.70
15543;DHT22;7873;52.230;12.856;2024-03-23T04:08:24;24.10;39.60
15543;DHT22;7873;52.230;12.856;2024-03-23T04:10:51;24.10;39.70
15543;DHT22;7873;52.230;12.856;2024-03-23T04:13:16;24.10;39.60
15543;DHT22;7873;52.230;12.856;2024-03-23T04:15:43;24.10;39.60
15543;DHT22;7873;52.230;12.856;2024-03-23T04:18:08;24.10;39.50
15543;DHT22;7873;52.230;12.856;2024-03-23T04:20:35;24.10;39.60
15543;DHT22;7873;52.230;12.856;2024-03-23T04:23:01;24.00;39.40
15543;DHT22;7873;52.230;12.856;2024-03-23T04:25:28;24.00;39.50
15543;DHT22;7873;52.230;12.856;2024-03-23T04:27:54;24.00;39.40
15543;DHT22;7873;52.230;12.856;2024-03-23T04:30:20;24.00;39.40
15543;DHT22;7873;52.230;12.856;2024-03-23T04:32:47;24.00;39.40
15543;DHT22;7873;52.230;12.856;2024-03-23T04:35:14;23.90;39.10
15543;DHT22;7873;52.230;12.856;2024-03-23T04:37:39;23.90;40.10
15543;DHT22;7873;52.230;12.856;2024-03-23T04:40:08;23.90;40.50
15543;DHT22;7873;52.230;12.856;2024-03-23T04:42:36;23.90;39.50
15543;DHT22;7873;52.230;12.856;2024-03-23T04:45:03;23.90;39.20
15543;DHT22;7873;52.230;12.856;2024-03-23T04:47:31;23.90;39.20
15543;DHT22;7873;52.230;12.856;2024-03-23T04:49:57;23.90;39.20
15543;DHT22;7873;52.230;12.856;2024-03-23T04:52:24;23.90;39.90
15543;DHT22;7873;52.230;12.856;2024-03-23T04:54:50;23.90;39.20
15543;DHT22;7873;52.230;12.856;2024-03-23T04:57:17;23.90;39.10
15543;DHT22;7873;52.230;12.856;2024-03-23T04:59:44;23.90;39.10
15543;DHT22;7873;52.230;12.856;2024-03-23T05:02:09;23.90;39.20
15543;DHT22;7873;52.230;12.856;2024-03-23T05:04:36;23.90;39.20
15543;DHT22;7873;52.230;12.856;2024-03-23T05:07:02;23.80;39.00
15543;DHT22;7873;52.230;12.856;2024-03-23T05:09:29;23.90;39.10
15543;DHT22;7873;52.230;12.856;2024-03-23T05:11:55;23.90;39.10
15543;DHT22;7873;52.230;12.856;2024-03-23T05:14:23;23.80;39.10
15543;DHT22;7873;52.230;12.856;2024-03-23T05:16:49;23.80;39.10
15543;DHT22;7873;52.230;12.856;2024-03-23T05:19:15;23.80;39.10
15543;DHT22;7873;52.230;12.856;2024-03-23T05:21:41;23.80;39.00
15543;DHT22;7873;52.230;12.856;2024-03-23T05:24:07;23.80;39.00
15543;DHT22;7873;52.230;12.856;2024-03-23T05:26:33;23.80;39.00
15543;DHT22;7873;52.230;12.856;2024-03-23T05:29:00;23.80;39.00
15543;DHT22;7873;52.230;12.856;2024-03-23T05:31:28;23.80;39.70
15543;DHT22;7873;52.230;12.856;2024-03-23T05:33:55;23.80;39.00
15543;DHT22;7873;52.230;12.856;2024-03-23T05:36:21;23.80;39.00
15543;DHT22;7873;52.230;12.856;2024-03-23T05:38:49;23.80;38.90
15543;DHT22;7873;52.230;12.856;2024-03-23T05:41:14;23.80;39.00
15543;DHT22;7873;52.230;12.856;2024-03-23T05:43:41;23.70;38.90
15543;DHT22;7873;52.230;12.856;2024-03-23T05:46:06;23.70;38.90
15543;DHT22;7873;52.230;12.856;2024-03-23T05:48:35;23.70;38.90
15543;DHT22;7873;52.230;12.856;2024-03-23T05:51:01;23.70;39.00
15543;DHT22;7873;52.230;12.856;2024-03-23T05:53:28;23.70;39.00
15543;DHT22;7873;52.230;12.856;2024-03-23T05:56:00;23.70;39.00
15543;DHT22;7873;52.230;12.856;2024-03-23T05:58:29;23.70;38.90
15543;DHT22;7873;52.230;12.856;2024-03-23T06:00:56;23.70;38.90
15543;DHT22;7873;52.230;12.856;2024-03-23T06:03:23;23.70;38.90
15543;DHT22;7873;52.230;12.856;2024-03-23T06:05:50;23.70;38.90
15543;DHT22;7873;52.230;12.856;2024-03-23T06:08:18;23.60;38.90
15543;DHT22;7873;52.230;12.856;2024-03-23T06:10:44;23.60;38.90
15543;DHT22;7873;52.230;12.856;2024-03-23T06:13:11;23.60;38.90
15543;DHT22;7873;52.230;12.856;2024-03-23T06:15:37;23.60;38.90
15543;DHT22;7873;52.230;12.856;2024-03-23T06:18:03;23.60;38.80
15543;DHT22;7873;52.230;12.856;2024-03-23T06:20:30;23.70;38.90
15543;DHT22;7873;52.230;12.856;2024-03-23T06:22:57;23.60;38.90
15543;DHT22;7873;52.230;12.856;2024-03-23T06:25:23;23.60;38.90
15543;DHT22;7873;52.230;12.856;2024-03-23T06:27:49;23.60;40.30
15543;DHT22;7873;52.230;12.856;2024-03-23T06:30:15;23.60;39.40
15543;DHT22;7873;52.230;12.856;2024-03-23T06:32:41;23.50;39.00
15543;DHT22;7873;52.230;12.856;2024-03-23T06:35:07;23.20;38.40
15543;DHT22;7873;52.230;12.856;2024-03-23T06:37:35;23.00;38.60
15543;DHT22;7873;52.230;12.856;2024-03-23T06:40:02;23.00;38.90
15543;DHT22;7873;52.230;12.856;2024-03-23T06:42:33;22.50;38.30
15543;DHT22;7873;52.230;12.856;2024-03-23T06:44:59;21.90;39.80
15543;DHT22;7873;52.230;12.856;2024-03-23T06:47:25;21.40;40.40
15543;DHT22;7873;52.230;12.856;2024-03-23T06:49:51;21.70;40.90
15543;DHT22;7873;52.230;12.856;2024-03-23T06:52:17;21.90;40.40
15543;DHT22;7873;52.230;12.856;2024-03-23T06:54:43;22.10;40.00
15543;DHT22;7873;52.230;12.856;2024-03-23T06:57:12;22.30;39.90
15543;DHT22;7873;52.230;12.856;2024-03-23T06:59:37;22.40;39.60
15543;DHT22;7873;52.230;12.856;2024-03-23T07:02:04;22.50;39.30
15543;DHT22;7873;52.230;12.856;2024-03-23T07:04:30;22.60;39.10
15543;DHT22;7873;52.230;12.856;2024-03-23T07:06:56;22.60;39.00
15543;DHT22;7873;52.230;12.856;2024-03-23T07:09:22;22.60;39.00
15543;DHT22;7873;52.230;12.856;2024-03-23T07:11:51;22.60;39.90
15543;DHT22;7873;52.230;12.856;2024-03-23T07:14:20;22.50;38.90
15543;DHT22;7873;52.230;12.856;2024-03-23T07:16:46;22.50;38.80
15543;DHT22;7873;52.230;12.856;2024-03-23T07:19:12;22.50;38.90
15543;DHT22;7873;52.230;12.856;2024-03-23T07:21:40;22.60;39.00
15543;DHT22;7873;52.230;12.856;2024-03-23T07:24:06;22.60;39.00
15543;DHT22;7873;52.230;12.856;2024-03-23T07:26:32;22.60;39.10
15543;DHT22;7873;52.230;12.856;2024-03-23T07:28:58;22.70;39.10
15543;DHT22;7873;52.230;12.856;2024-03-23T07:31:26;22.70;39.10
15543;DHT22;7873;52.230;12.856;2024-03-23T07:33:51;22.80;39.10
15543;DHT22;7873;52.230;12.856;2024-03-23T07:36:18;22.80;39.10
15543;DHT22;7873;52.230;12.856;2024-03-23T07:38:43;22.80;39.10
15543;DHT22;7873;52.230;12.856;2024-03-23T07:41:11;22.90;39.10
15543;DHT22;7873;52.230;12.856;2024-03-23T07:43:39;22.90;39.10
15543;DHT22;7873;52.230;12.856;2024-03-23T07:46:06;22.90;39.20
15543;DHT22;7873;52.230;12.856;2024-03-23T07:48:33;22.90;39.30
15543;DHT22;7873;52.230;12.856;2024-03-23T07:51:00;22.90;39.30
15543;DHT22;7873;52.230;12.856;2024-03-23T07:53:27;22.70;39.40
15543;DHT22;7873;52.230;12.856;2024-03-23T07:55:54;22.70;39.50
15543;DHT22;7873;52.230;12.856;2024-03-23T07:58:21;22.70;39.50
15543;DHT22;7873;52.230;12.856;2024-03-23T08:00:47;22.60;38.50
15543;DHT22;7873;52.230;12.856;2024-03-23T08:03:13;22.60;38.80
15543;DHT22;7873;52.230;12.856;2024-03-23T08:05:40;22.50;38.70
15543;DHT22;7873;52.230;12.856;2024-03-23T08:08:06;22.60;39.10
15543;DHT22;7873;52.230;12.856;2024-03-23T08:10:32;22.60;39.20
15543;DHT22;7873;52.230;12.856;2024-03-23T08:12:58;22.70;39.10
15543;DHT22;7873;52.230;12.856;2024-03-23T08:15:24;22.70;38.70
15543;DHT22;7873;52.230;12.856;2024-03-23T08:17:50;22.90;39.70
15543;DHT22;7873;52.230;12.856;2024-03-23T08:20:16;22.90;39.00
15543;DHT22;7873;52.230;12.856;2024-03-23T08:22:43;23.00;39.00
15543;DHT22;7873;52.230;12.856;2024-03-23T08:25:10;23.00;38.90
15543;DHT22;7873;52.230;12.856;2024-03-23T08:27:35;23.00;38.90
15543;DHT22;7873;52.230;12.856;2024-03-23T08:30:02;23.00;38.90
15543;DHT22;7873;52.230;12.856;2024-03-23T08:32:28;23.00;39.60
15543;DHT22;7873;52.230;12.856;2024-03-23T08:34:54;23.00;38.90
15543;DHT22;7873;52.230;12.856;2024-03-23T08:37:20;23.00;39.00
15543;DHT22;7873;52.230;12.856;2024-03-23T08:39:48;23.00;39.00
15543;DHT22;7873;52.230;12.856;2024-03-23T08:42:16;23.00;39.00
15543;DHT22;7873;52.230;12.856;2024-03-23T08:44:42;23.00;39.20
15543;DHT22;7873;52.230;12.856;2024-03-23T08:47:11;22.90;39.10
15543;DHT22;7873;52.230;12.856;2024-03-23T08:49:38;22.90;39.20
15543;DHT22;7873;52.230;12.856;2024-03-23T08:52:03;22.90;39.20
15543;DHT22;7873;52.230;12.856;2024-03-23T08:54:30;22.90;39.20
15543;DHT22;7873;52.230;12.856;2024-03-23T08:56:57;22.90;39.20
15543;DHT22;7873;52.230;12.856;2024-03-23T08:59:24;22.80;39.40
15543;DHT22;7873;52.230;12.856;2024-03-23T09:01:49;22.80;39.20
15543;DHT22;7873;52.230;12.856;2024-03-23T09:04:16;22.80;39.20
15543;DHT22;7873;52.230;12.856;2024-03-23T09:06:42;22.80;39.10
15543;DHT22;7873;52.230;12.856;2024-03-23T09:09:08;22.80;39.00
15543;DHT22;7873;52.230;12.856;2024-03-23T09:11:34;22.80;38.90
15543;DHT22;7873;52.230;12.856;2024-03-23T09:14:01;22.80;39.00
15543;DHT22;7873;52.230;12.856;2024-03-23T09:16:27;22.80;39.50
15543;DHT22;7873;52.230;12.856;2024-03-23T09:18:53;22.80;38.80
15543;DHT22;7873;52.230;12.856;2024-03-23T09:21:19;22.80;38.70
15543;DHT22;7873;52.230;12.856;2024-03-23T09:23:46;22.80;38.60
15543;DHT22;7873;52.230;12.856;2024-03-23T09:26:12;22.80;38.00
15543;DHT22;7873;52.230;12.856;2024-03-23T09:28:38;22.70;38.30
15543;DHT22;7873;52.230;12.856;2024-03-23T09:31:05;22.60;38.50
15543;DHT22;7873;52.230;12.856;2024-03-23T09:33:33;22.70;38.80
15543;DHT22;7873;52.230;12.856;2024-03-23T09:36:02;22.70;38.80
15543;DHT22;7873;52.230;12.856;2024-03-23T09:38:29;22.70;38.70
15543;DHT22;7873;52.230;12.856;2024-03-23T09:40:55;22.70;38.60
15543;DHT22;7873;52.230;12.856;2024-03-23T09:43:23;22.70;38.40
15543;DHT22;7873;52.230;12.856;2024-03-23T09:45:49;22.70;38.40
15543;DHT22;7873;52.230;12.856;2024-03-23T09:48:17;22.70;38.50
15543;DHT22;7873;52.230;12.856;2024-03-23T09:50:43;22.60;38.50
15543;DHT22;7873;52.230;12.856;2024-03-23T09:53:11;22.60;38.40
15543;DHT22;7873;52.230;12.856;2024-03-23T09:55:38;22.60;38.50
15543;DHT22;7873;52.230;12.856;2024-03-23T09:58:05;22.60;38.50
15543;DHT22;7873;52.230;12.856;2024-03-23T10:00:31;22.60;38.60
15543;DHT22;7873;52.230;12.856;2024-03-23T10:02:57;22.60;38.50
15543;DHT22;7873;52.230;12.856;2024-03-23T10:05:28;22.60;38.30
15543;DHT22;7873;52.230;12.856;2024-03-23T10:07:56;22.60;38.50
15543;DHT22;7873;52.230;12.856;2024-03-23T10:10:22;22.70;38.40
15543;DHT22;7873;52.230;12.856;2024-03-23T10:12:51;22.70;38.30
15543;DHT22;7873;52.230;12.856;2024-03-23T10:15:18;22.70;39.10
15543;DHT22;7873;52.230;12.856;2024-03-23T10:17:45;22.70;38.20
15543;DHT22;7873;52.230;12.856;2024-03-23T10:20:11;22.60;37.80
15543;DHT22;7873;52.230;12.856;2024-03-23T10:22:39;22.60;38.00
15543;DHT22;7873;52.230;12.856;2024-03-23T10:25:08;22.60;38.00
15543;DHT22;7873;52.230;12.856;2024-03-23T10:27:36;22.60;38.20
15543;DHT22;7873;52.230;12.856;2024-03-23T10:30:08;22.50;38.80
15543;DHT22;7873;52.230;12.856;2024-03-23T10:32:35;22.50;38.00
15543;DHT22;7873;52.230;12.856;2024-03-23T10:35:14;22.40;37.90
15543;DHT22;7873;52.230;12.856;2024-03-23T10:37:42;22.20;37.40
15543;DHT22;7873;52.230;12.856;2024-03-23T10:40:09;22.20;38.50
15543;DHT22;7873;52.230;12.856;2024-03-23T10:42:37;22.20;38.60
15543;DHT22;7873;52.230;12.856;2024-03-23T10:45:04;22.20;37.80
15543;DHT22;7873;52.230;12.856;2024-03-23T10:47:31;22.20;38.00
15543;DHT22;7873;52.230;12.856;2024-03-23T10:49:57;22.10;38.10
15543;DHT22;7873;52.230;12.856;2024-03-23T10:52:24;22.10;37.80
15543;DHT22;7873;52.230;12.856;2024-03-23T10:54:51;22.10;36.80
15543;DHT22;7873;52.230;12.856;2024-03-23T10:57:20;22.10;37.10
15543;DHT22;7873;52.230;12.856;2024-03-23T10:59:47;22.30;37.40
15543;DHT22;7873;52.230;12.856;2024-03-23T11:02:18;22.30;37.20
15543;DHT22;7873;52.230;12.856;2024-03-23T11:04:44;22.40;37.10
15543;DHT22;7873;52.230;12.856;2024-03-23T11:07:29;22.30;35.90
15543;DHT22;7873;52.230;12.856;2024-03-23T11:09:56;21.40;35.00
15543;DHT22;7873;52.230;12.856;2024-03-23T11:12:27;20.90;36.70
15543;DHT22;7873;52.230;12.856;2024-03-23T11:14:57;21.00;37.40
15543;DHT22;7873;52.230;12.856;2024-03-23T11:17:25;21.20;37.40
15543;DHT22;7873;52.230;12.856;2024-03-23T11:19:55;21.50;37.30
15543;DHT22;7873;52.230;12.856;2024-03-23T11:22:42;21.60;37.30
15543;DHT22;7873;52.230;12.856;2024-03-23T11:25:19;21.80;37.10
15543;DHT22;7873;52.230;12.856;2024-03-23T11:27:47;21.80;37.10
15543;DHT22;7873;52.230;12.856;2024-03-23T11:30:14;21.90;37.10
15543;DHT22;7873;52.230;12.856;2024-03-23T11:32:42;22.00;37.60
15543;DHT22;7873;52.230;12.856;2024-03-23T11:35:08;22.10;37.60
15543;DHT22;7873;52.230;12.856;2024-03-23T11:37:36;22.20;37.70
15543;DHT22;7873;52.230;12.856;2024-03-23T11:40:16;22.30;37.50
15543;DHT22;7873;52.230;12.856;2024-03-23T11:42:44;22.50;37.10
15543;DHT22;7873;52.230;12.856;2024-03-23T11:45:10;22.70;36.90
15543;DHT22;7873;52.230;12.856;2024-03-23T11:47:38;22.80;36.70
15543;DHT22;7873;52.230;12.856;2024-03-23T11:50:03;23.00;36.60
15543;DHT22;7873;52.230;12.856;2024-03-23T11:52:30;23.10;36.50
15543;DHT22;7873;52.230;12.856;2024-03-23T11:55:02;23.30;36.40
15543;DHT22;7873;52.230;12.856;2024-03-23T11:57:30;23.40;36.40
15543;DHT22;7873;52.230;12.856;2024-03-23T11:59:57;23.50;36.30
15543;DHT22;7873;52.230;12.856;2024-03-23T12:02:23;23.40;36.70
15543;DHT22;7873;52.230;12.856;2024-03-23T12:04:49;23.50;36.90
15543;DHT22;7873;52.230;12.856;2024-03-23T12:07:16;23.50;36.90
15543;DHT22;7873;52.230;12.856;2024-03-23T12:09:44;23.50;37.10
15543;DHT22;7873;52.230;12.856;2024-03-23T12:12:13;23.40;37.20
15543;DHT22;7873;52.230;12.856;2024-03-23T12:14:40;23.50;37.10
15543;DHT22;7873;52.230;12.856;2024-03-23T12:17:09;23.50;37.00
15543;DHT22;7873;52.230;12.856;2024-03-23T12:19:38;23.60;37.10
15543;DHT22;7873;52.230;12.856;2024-03-23T12:22:05;23.60;37.10
15543;DHT22;7873;52.230;12.856;2024-03-23T12:24:32;23.60;37.20
15543;DHT22;7873;52.230;12.856;2024-03-23T12:27:00;23.50;37.40
15543;DHT22;7873;52.230;12.856;2024-03-23T12:29:28;23.50;37.40
15543;DHT22;7873;52.230;12.856;2024-03-23T12:31:55;23.60;37.50
15543;DHT22;7873;52.230;12.856;2024-03-23T12:34:22;23.60;37.30
15543;DHT22;7873;52.230;12.856;2024-03-23T12:36:50;23.60;37.40
15543;DHT22;7873;52.230;12.856;2024-03-23T12:39:15;23.60;37.50
15543;DHT22;7873;52.230;12.856;2024-03-23T12:41:42;23.60;37.50
15543;DHT22;7873;52.230;12.856;2024-03-23T12:44:08;23.60;37.50
15543;DHT22;7873;52.230;12.856;2024-03-23T12:46:36;23.60;37.30
15543;DHT22;7873;52.230;12.856;2024-03-23T12:49:02;23.60;36.70
15543;DHT22;7873;52.230;12.856;2024-03-23T12:51:30;23.60;36.90
15543;DHT22;7873;52.230;12.856;2024-03-23T12:53:56;23.70;36.90
15543;DHT22;7873;52.230;12.856;2024-03-23T12:56:22;23.70;36.90
15543;DHT22;7873;52.230;12.856;2024-03-23T12:58:48;23.70;36.80
15543;DHT22;7873;52.230;12.856;2024-03-23T13:01:16;23.70;36.90
15543;DHT22;7873;52.230;12.856;2024-03-23T13:03:42;23.70;36.90
15543;DHT22;7873;52.230;12.856;2024-03-23T13:06:09;23.70;37.00
15543;DHT22;7873;52.230;12.856;2024-03-23T13:08:36;23.70;36.90
15543;DHT22;7873;52.230;12.856;2024-03-23T13:11:03;23.80;36.90
15543;DHT22;7873;52.230;12.856;2024-03-23T13:13:29;23.80;37.00
15543;DHT22;7873;52.230;12.856;2024-03-23T13:15:57;23.80;37.00
15543;DHT22;7873;52.230;12.856;2024-03-23T13:18:22;23.80;37.10
15543;DHT22;7873;52.230;12.856;2024-03-23T13:20:49;23.80;36.90
15543;DHT22;7873;52.230;12.856;2024-03-23T13:23:14;23.70;37.00
15543;DHT22;7873;52.230;12.856;2024-03-23T13:25:42;23.70;37.00
15543;DHT22;7873;52.230;12.856;2024-03-23T13:28:14;23.70;37.20
15543;DHT22;7873;52.230;12.856;2024-03-23T13:30:49;23.60;37.20
15543;DHT22;7873;52.230;12.856;2024-03-23T13:33:16;23.60;37.20
15543;DHT22;7873;52.230;12.856;2024-03-23T13:35:48;23.60;37.20
15543;DHT22;7873;52.230;12.856;2024-03-23T13:38:15;23.70;37.20
15543;DHT22;7873;52.230;12.856;2024-03-23T13:40:49;23.70;37.10
15543;DHT22;7873;52.230;12.856;2024-03-23T13:43:16;23.70;37.20
15543;DHT22;7873;52.230;12.856;2024-03-23T13:45:43;23.70;37.20
15543;DHT22;7873;52.230;12.856;2024-03-23T13:48:08;23.70;37.20
15543;DHT22;7873;52.230;12.856;2024-03-23T13:50:35;23.70;37.10
15543;DHT22;7873;52.230;12.856;2024-03-23T13:53:01;23.80;37.10
15543;DHT22;7873;52.230;12.856;2024-03-23T13:55:27;23.80;37.10
15543;DHT22;7873;52.230;12.856;2024-03-23T13:57:54;23.70;37.10
15543;DHT22;7873;52.230;12.856;2024-03-23T14:00:21;23.80;37.10
15543;DHT22;7873;52.230;12.856;2024-03-23T14:02:46;23.80;37.00
15543;DHT22;7873;52.230;12.856;2024-03-23T14:05:14;23.80;37.20
15543;DHT22;7873;52.230;12.856;2024-03-23T14:07:39;23.80;37.20
15543;DHT22;7873;52.230;12.856;2024-03-23T14:10:06;23.80;37.10
15543;DHT22;7873;52.230;12.856;2024-03-23T14:12:32;23.80;37.20
15543;DHT22;7873;52.230;12.856;2024-03-23T14:15:00;23.80;37.00
15543;DHT22;7873;52.230;12.856;2024-03-23T14:17:28;23.90;36.70
15543;DHT22;7873;52.230;12.856;2024-03-23T14:19:54;24.00;36.70
15543;DHT22;7873;52.230;12.856;2024-03-23T14:22:20;24.10;37.20
15543;DHT22;7873;52.230;12.856;2024-03-23T14:24:48;24.10;36.40
15543;DHT22;7873;52.230;12.856;2024-03-23T14:27:13;24.10;36.40
15543;DHT22;7873;52.230;12.856;2024-03-23T14:29:40;24.10;36.40
15543;DHT22;7873;52.230;12.856;2024-03-23T14:32:07;24.10;36.20
15543;DHT22;7873;52.230;12.856;2024-03-23T14:34:33;24.10;36.20
15543;DHT22;7873;52.230;12.856;2024-03-23T14:37:00;24.10;36.10
15543;DHT22;7873;52.230;12.856;2024-03-23T14:39:26;24.10;36.20
15543;DHT22;7873;52.230;12.856;2024-03-23T14:41:52;24.00;36.30
15543;DHT22;7873;52.230;12.856;2024-03-23T14:44:19;24.00;36.60
15543;DHT22;7873;52.230;12.856;2024-03-23T14:46:44;24.00;36.20
15543;DHT22;7873;52.230;12.856;2024-03-23T14:49:14;24.10;35.80
15543;DHT22;7873;52.230;12.856;2024-03-23T14:51:41;24.10;35.60
15543;DHT22;7873;52.230;12.856;2024-03-23T14:54:08;24.10;35.30
15543;DHT22;7873;52.230;12.856;2024-03-23T14:56:33;24.10;35.20
15543;DHT22;7873;52.230;12.856;2024-03-23T14:59:00;24.10;35.00
15543;DHT22;7873;52.230;12.856;2024-03-23T15:01:26;23.80;33.20
15543;DHT22;7873;52.230;12.856;2024-03-23T15:03:53;23.60;35.40
15543;DHT22;7873;52.230;12.856;2024-03-23T15:06:20;23.70;34.70
15543;DHT22;7873;52.230;12.856;2024-03-23T15:08:46;23.80;35.30
15543;DHT22;7873;52.230;12.856;2024-03-23T15:11:12;23.70;34.50
15543;DHT22;7873;52.230;12.856;2024-03-23T15:13:38;23.60;34.60
15543;DHT22;7873;52.230;12.856;2024-03-23T15:16:04;23.70;35.00
15543;DHT22;7873;52.230;12.856;2024-03-23T15:18:32;23.70;35.00
15543;DHT22;7873;52.230;12.856;2024-03-23T15:20:59;23.80;35.70
15543;DHT22;7873;52.230;12.856;2024-03-23T15:23:28;23.80;36.60
15543;DHT22;7873;52.230;12.856;2024-03-23T15:25:54;23.80;38.00
15543;DHT22;7873;52.230;12.856;2024-03-23T15:28:21;23.80;39.00
15543;DHT22;7873;52.230;12.856;2024-03-23T15:30:46;23.90;39.80
15543;DHT22;7873;52.230;12.856;2024-03-23T15:33:13;23.80;40.60
15543;DHT22;7873;52.230;12.856;2024-03-23T15:35:38;23.90;41.20
15543;DHT22;7873;52.230;12.856;2024-03-23T15:38:05;23.90;41.20
15543;DHT22;7873;52.230;12.856;2024-03-23T15:40:32;23.90;40.30
15543;DHT22;7873;52.230;12.856;2024-03-23T15:42:58;23.90;40.10
15543;DHT22;7873;52.230;12.856;2024-03-23T15:45:24;23.90;39.90
15543;DHT22;7873;52.230;12.856;2024-03-23T15:47:50;24.10;39.70
15543;DHT22;7873;52.230;12.856;2024-03-23T15:50:17;24.10;39.40
15543;DHT22;7873;52.230;12.856;2024-03-23T15:52:43;24.10;39.00
15543;DHT22;7873;52.230;12.856;2024-03-23T15:55:09;24.10;38.70
15543;DHT22;7873;52.230;12.856;2024-03-23T15:57:37;24.00;38.40
15543;DHT22;7873;52.230;12.856;2024-03-23T16:00:03;24.10;38.30
15543;DHT22;7873;52.230;12.856;2024-03-23T16:02:31;24.10;38.00
15543;DHT22;7873;52.230;12.856;2024-03-23T16:04:57;24.20;37.90
15543;DHT22;7873;52.230;12.856;2024-03-23T16:07:23;24.20;38.00
15543;DHT22;7873;52.230;12.856;2024-03-23T16:09:49;24.20;37.90
15543;DHT22;7873;52.230;12.856;2024-03-23T16:12:15;24.20;37.90
15543;DHT22;7873;52.230;12.856;2024-03-23T16:14:43;24.20;37.90
15543;DHT22;7873;52.230;12.856;2024-03-23T16:17:10;24.20;37.90
15543;DHT22;7873;52.230;12.856;2024-03-23T16:19:35;24.10;37.80
15543;DHT22;7873;52.230;12.856;2024-03-23T16:22:02;24.20;37.70